createdAt,value
2022-11-13T00:02:48.827Z,102780.03
2022-11-13T00:07:58.366Z,102774.88
2022-11-13T00:13:07.189Z,102771.38
2022-11-13T00:18:22.373Z,102778.41
2022-11-13T00:23:38.581Z,102754.94
2022-11-13T00:28:57.050Z,102753.38
2022-11-13T00:34:41.129Z,102745.72
2022-11-13T00:39:40.871Z,102730.97
2022-11-13T00:44:50.423Z,102724.09
2022-11-13T00:50:01.674Z,102709.00
2022-11-13T00:55:10.935Z,102701.22
2022-11-13T01:00:20.502Z,102703.53
2022-11-13T01:05:31.899Z,102703.88
2022-11-13T01:10:45.586Z,102703.72
2022-11-13T01:15:56.152Z,102701.84
2022-11-13T01:21:13.562Z,102706.13
2022-11-13T01:26:24.391Z,102700.69
2022-11-13T01:31:33.810Z,102691.31
2022-11-13T01:36:45.170Z,102687.72
2022-11-13T01:41:54.837Z,102676.38
2022-11-13T01:47:03.786Z,102672.81
2022-11-13T01:52:18.510Z,102673.56
2022-11-13T01:57:28.084Z,102668.38
2022-11-13T02:02:36.818Z,102657.84
2022-11-13T02:07:48.528Z,102640.44
2022-11-13T02:12:57.798Z,102643.88
2022-11-13T02:18:08.761Z,102640.28
2022-11-13T02:23:25.605Z,102629.59
2022-11-13T02:28:36.549Z,102624.50
2022-11-13T02:33:45.325Z,102626.88
2022-11-13T02:38:55.274Z,102632.53
2022-11-13T02:44:06.482Z,102638.44
2022-11-13T02:49:15.780Z,102640.03
2022-11-13T02:54:25.376Z,102631.16
2022-11-13T02:59:37.182Z,102621.63
2022-11-13T03:05:11.514Z,102613.69
2022-11-13T03:10:17.219Z,102601.38
2022-11-13T03:15:28.566Z,102610.63
2022-11-13T03:20:43.083Z,102600.81
2022-11-13T03:25:54.650Z,102606.53
2022-11-13T03:31:09.914Z,102609.84
2022-11-13T03:36:20.498Z,102616.53
2022-11-13T03:41:29.163Z,102609.28
2022-11-13T03:46:40.903Z,102620.22
2022-11-13T03:51:50.153Z,102611.47
2022-11-13T03:56:59.181Z,102601.94
2022-11-13T04:02:10.902Z,102598.41
2022-11-13T04:07:20.029Z,102594.00
2022-11-13T04:12:29.379Z,102592.97
2022-11-13T04:17:41.088Z,102573.59
2022-11-13T04:22:50.074Z,102574.69
2022-11-13T04:27:58.902Z,102577.16
2022-11-13T04:33:10.459Z,102571.91
2022-11-13T04:38:19.641Z,102572.72
2022-11-13T04:43:28.318Z,102574.31
2022-11-13T04:48:39.420Z,102574.09
2022-11-13T04:53:47.690Z,102567.03
2022-11-13T04:58:56.517Z,102567.69
2022-11-13T05:04:09.015Z,102570.03
2022-11-13T05:09:18.180Z,102564.59
2022-11-13T05:14:26.947Z,102553.06
2022-11-13T05:19:38.794Z,102562.41
2022-11-13T05:24:48.287Z,102552.84
2022-11-13T05:29:56.808Z,102542.56
2022-11-13T05:35:08.825Z,102519.59
2022-11-13T05:40:17.708Z,102527.38
2022-11-13T05:45:26.624Z,102518.47
2022-11-13T05:50:38.109Z,102506.28
2022-11-13T05:55:46.707Z,102518.19
2022-11-13T06:00:55.192Z,102509.53
2022-11-13T06:06:09.150Z,102513.63
2022-11-13T06:11:20.756Z,102493.63
2022-11-13T06:16:31.479Z,102497.81
2022-11-13T06:21:45.133Z,102488.34
2022-11-13T06:26:54.263Z,102495.88
2022-11-13T06:32:03.796Z,102491.19
2022-11-13T06:37:15.119Z,102485.16
2022-11-13T06:42:23.689Z,102480.75
2022-11-13T06:47:32.347Z,102475.38
2022-11-13T06:52:43.275Z,102483.88
2022-11-13T06:57:52.127Z,102488.06
2022-11-13T07:03:03.064Z,102478.69
2022-11-13T07:08:14.738Z,102472.75
2022-11-13T07:13:23.660Z,102466.91
2022-11-13T07:18:35.712Z,102456.06
2022-11-13T07:23:47.768Z,102470.84
2022-11-13T07:28:56.475Z,102474.53
2022-11-13T07:34:06.303Z,102479.19
2022-11-13T07:39:22.162Z,102458.50
2022-11-13T07:44:53.393Z,102466.38
2022-11-13T07:50:08.220Z,102468.75
2022-11-13T07:55:24.548Z,102466.31
2022-11-13T08:00:36.813Z,102476.69
2022-11-13T08:05:47.778Z,102477.56
2022-11-13T08:10:59.502Z,102460.09
2022-11-13T08:16:09.202Z,102452.44
2022-11-13T08:21:18.826Z,102470.28
2022-11-13T08:26:30.953Z,102468.72
2022-11-13T08:31:40.801Z,102472.38
2022-11-13T08:36:52.117Z,102471.56
2022-11-13T08:42:05.116Z,102477.81
2022-11-13T08:47:14.127Z,102464.88
2022-11-13T08:52:23.499Z,102468.00
2022-11-13T08:57:35.240Z,102465.72
2022-11-13T09:02:45.189Z,102461.94
2022-11-13T09:07:56.279Z,102439.00
2022-11-13T09:13:09.821Z,102445.63
2022-11-13T09:18:18.928Z,102440.44
2022-11-13T09:23:28.931Z,102439.75
2022-11-13T09:28:41.154Z,102434.53
2022-11-13T09:33:50.072Z,102440.28
2022-11-13T09:38:58.718Z,102413.91
2022-11-13T09:44:19.493Z,102410.88
2022-11-13T09:49:31.921Z,102409.91
2022-11-13T09:54:41.729Z,102423.78
2022-11-13T09:59:55.360Z,102423.03
2022-11-13T10:05:06.486Z,102425.84
2022-11-13T10:10:30.793Z,102414.91
2022-11-13T10:15:43.218Z,102405.19
2022-11-13T10:20:54.426Z,102402.44
2022-11-13T10:26:07.351Z,102412.72
2022-11-13T10:31:20.640Z,102400.59
2022-11-13T10:36:39.259Z,102391.19
2022-11-13T10:41:51.863Z,102392.19
2022-11-13T10:47:42.354Z,102387.00
2022-11-13T10:52:53.361Z,102373.16
2022-11-13T10:58:04.258Z,102366.28
2022-11-13T11:03:16.746Z,102369.03
2022-11-13T11:08:29.995Z,102349.19
2022-11-13T11:13:40.048Z,102343.19
2022-11-13T11:18:57.128Z,102339.53
2022-11-13T11:24:13.971Z,102324.94
2022-11-13T11:29:28.977Z,102322.31
2022-11-13T11:34:44.860Z,102321.53
2022-11-13T11:39:55.736Z,102309.41
2022-11-13T11:45:08.767Z,102300.69
2022-11-13T11:50:25.173Z,102298.91
2022-11-13T11:55:49.995Z,102282.31
2022-11-13T12:01:12.252Z,102269.22
2022-11-13T12:06:28.071Z,102257.97
2022-11-13T12:11:37.796Z,102246.88
2022-11-13T12:16:49.684Z,102234.91
2022-11-13T12:22:06.955Z,102233.31
2022-11-13T12:27:21.733Z,102223.91
2022-11-13T12:32:43.416Z,102216.25
2022-11-13T12:37:56.659Z,102214.53
2022-11-13T12:43:16.801Z,102213.66
2022-11-13T12:48:30.717Z,102205.91
2022-11-13T12:53:57.962Z,102197.25
2022-11-13T12:59:29.670Z,102181.59
2022-11-13T13:04:50.009Z,102168.59
2022-11-13T13:10:17.897Z,102160.84
2022-11-13T13:15:33.759Z,102156.50
2022-11-13T13:20:42.668Z,102150.38
2022-11-13T13:26:04.424Z,102139.97
2022-11-13T13:31:20.285Z,102142.56
2022-11-13T13:36:33.615Z,102131.38
2022-11-13T13:41:51.689Z,102126.19
2022-11-13T13:47:02.132Z,102110.59
2022-11-13T13:52:17.837Z,102104.56
2022-11-13T13:57:30.542Z,102108.03
2022-11-13T14:02:48.375Z,102106.28
2022-11-13T14:07:56.795Z,102091.50
2022-11-13T14:13:09.503Z,102090.59
2022-11-13T14:18:19.267Z,102092.38
2022-11-13T14:23:29.456Z,102090.97
2022-11-13T14:28:52.282Z,102088.78
2022-11-13T14:34:04.855Z,102091.47
2022-11-13T14:39:26.989Z,102082.75
2022-11-13T14:44:39.757Z,102078.34
2022-11-13T14:49:49.498Z,102083.44
2022-11-13T14:55:15.734Z,102067.69
2022-11-13T15:00:34.525Z,102066.72
2022-11-13T15:05:45.991Z,102068.31
2022-11-13T15:10:59.933Z,102063.88
2022-11-13T15:16:20.321Z,102054.13
2022-11-13T15:21:36.465Z,102053.00
2022-11-13T15:26:48.239Z,102052.75
2022-11-13T15:32:06.387Z,102042.19
2022-11-13T15:37:25.861Z,102041.00
2022-11-13T15:42:41.220Z,102039.91
2022-11-13T15:48:01.523Z,102028.34
2022-11-13T15:53:14.966Z,102041.19
2022-11-13T15:58:33.329Z,102035.69
2022-11-13T16:03:53.920Z,102032.75
2022-11-13T16:09:03.653Z,102035.09
2022-11-13T16:14:21.882Z,102030.53
2022-11-13T16:19:46.757Z,102016.50
2022-11-13T16:25:05.454Z,102018.78
2022-11-13T16:30:18.070Z,102021.13
2022-11-13T16:35:26.551Z,102013.00
2022-11-13T16:40:39.599Z,102010.94
2022-11-13T16:45:47.551Z,102019.31
2022-11-13T16:50:57.247Z,102009.53
2022-11-13T16:56:16.056Z,101991.16
2022-11-13T17:01:25.085Z,101983.09
2022-11-13T17:06:35.117Z,101986.22
2022-11-13T17:11:49.106Z,101985.00
2022-11-13T17:16:57.342Z,101979.47
2022-11-13T17:22:05.999Z,101981.66
2022-11-13T17:27:16.866Z,101969.94
2022-11-13T17:32:25.667Z,101970.44
2022-11-13T17:37:33.765Z,101972.03
2022-11-13T17:42:44.689Z,101970.06
2022-11-13T17:47:52.862Z,101966.44
2022-11-13T17:53:01.237Z,101967.00
2022-11-13T17:58:14.622Z,101972.69
2022-11-13T18:03:23.639Z,101963.84
2022-11-13T18:08:32.063Z,101961.94
2022-11-13T18:13:43.070Z,101948.91
2022-11-13T18:18:55.714Z,101955.66
2022-11-13T18:24:05.656Z,101947.78
2022-11-13T18:29:19.000Z,101933.88
2022-11-13T18:34:29.335Z,101938.72
2022-11-13T18:39:37.312Z,101923.03
2022-11-13T18:44:48.321Z,101920.28
2022-11-13T18:49:56.167Z,101925.22
2022-11-13T18:55:04.626Z,101926.66
2022-11-13T19:00:17.974Z,101934.19
2022-11-13T19:05:26.211Z,101921.91
2022-11-13T19:10:36.984Z,101913.06
2022-11-13T19:15:51.069Z,101908.47
2022-11-13T19:20:59.446Z,101907.41
2022-11-13T19:26:09.052Z,101900.31
2022-11-13T19:31:23.678Z,101900.16
2022-11-13T19:36:32.873Z,101893.09
2022-11-13T19:41:51.433Z,101892.09
2022-11-13T19:47:03.812Z,101878.16
2022-11-13T19:52:20.692Z,101872.81
2022-11-13T19:57:31.162Z,101872.69
2022-11-13T20:02:42.121Z,101857.16
2022-11-13T20:07:53.898Z,101857.88
2022-11-13T20:13:03.621Z,101844.06
2022-11-13T20:18:19.353Z,101836.13
2022-11-13T20:23:29.846Z,101836.91
2022-11-13T20:28:40.216Z,101825.56
2022-11-13T20:33:52.929Z,101820.34
2022-11-13T20:39:09.160Z,101817.56
2022-11-13T20:44:17.878Z,101818.25
2022-11-13T20:49:28.617Z,101823.19
2022-11-13T20:54:36.605Z,101818.72
2022-11-13T20:59:44.804Z,101809.09
2022-11-13T21:04:57.149Z,101815.00
2022-11-13T21:10:06.767Z,101802.88
2022-11-13T21:15:16.001Z,101791.59
2022-11-13T21:20:30.795Z,101789.75
2022-11-13T21:25:39.274Z,101776.75
2022-11-13T21:30:51.873Z,101774.88
2022-11-13T21:36:19.982Z,101779.81
2022-11-13T21:41:29.641Z,101777.03
2022-11-13T21:46:42.367Z,101765.78
2022-11-13T21:51:54.069Z,101766.50
2022-11-13T21:57:02.191Z,101763.72
2022-11-13T22:02:12.810Z,101758.41
2022-11-13T22:07:23.605Z,101756.50
2022-11-13T22:12:32.191Z,101740.06
2022-11-13T22:17:41.460Z,101735.69
2022-11-13T22:22:53.363Z,101730.34
2022-11-13T22:28:02.407Z,101731.88
2022-11-13T22:33:10.525Z,101707.78
2022-11-13T22:38:22.660Z,101704.28
2022-11-13T22:43:34.304Z,101706.75
2022-11-13T22:48:45.034Z,101699.75
2022-11-13T22:53:57.988Z,101690.22
2022-11-13T22:59:08.025Z,101689.22
2022-11-13T23:04:17.189Z,101674.50
2022-11-13T23:09:29.133Z,101676.94
2022-11-13T23:14:38.562Z,101667.41
2022-11-13T23:19:46.687Z,101664.78
2022-11-13T23:24:59.159Z,101643.41
2022-11-13T23:30:09.043Z,101647.66
2022-11-13T23:35:18.280Z,101645.97
2022-11-13T23:40:29.483Z,101642.53
2022-11-13T23:45:37.766Z,101631.31
2022-11-13T23:50:46.313Z,101632.97
2022-11-13T23:55:58.292Z,101639.78
